sensor_id;sensor_type;location;lat;lon;timestamp;temperature;humidity
41720;DHT22;27405;53.316;-6.294;2023-04-06T00:01:52;11.50;99.90
41720;DHT22;27405;53.316;-6.294;2023-04-06T00:04:17;11.50;99.90
41720;DHT22;27405;53.316;-6.294;2023-04-06T00:06:43;11.50;99.90
41720;DHT22;27405;53.316;-6.294;2023-04-06T00:09:08;11.40;99.90
41720;DHT22;27405;53.316;-6.294;2023-04-06T00:11:34;11.30;99.90
41720;DHT22;27405;53.316;-6.294;2023-04-06T00:13:59;11.20;99.90
41720;DHT22;27405;53.316;-6.294;2023-04-06T00:16:25;11.20;99.90
41720;DHT22;27405;53.316;-6.294;2023-04-06T00:18:51;11.10;99.90
41720;DHT22;27405;53.316;-6.294;2023-04-06T00:21:17;11.10;99.90
41720;DHT22;27405;53.316;-6.294;2023-04-06T00:23:42;11.00;99.90
41720;DHT22;27405;53.316;-6.294;2023-04-06T00:26:08;10.90;99.90
41720;DHT22;27405;53.316;-6.294;2023-04-06T00:28:34;10.90;99.90
41720;DHT22;27405;53.316;-6.294;2023-04-06T00:31:00;10.90;99.90
41720;DHT22;27405;53.316;-6.294;2023-04-06T00:33:25;10.80;99.90
41720;DHT22;27405;53.316;-6.294;2023-04-06T00:35:51;10.80;99.90
41720;DHT22;27405;53.316;-6.294;2023-04-06T00:38:17;10.80;99.90
41720;DHT22;27405;53.316;-6.294;2023-04-06T00:40:42;10.80;99.90
41720;DHT22;27405;53.316;-6.294;2023-04-06T00:43:10;10.90;99.90
41720;DHT22;27405;53.316;-6.294;2023-04-06T00:45:36;10.90;99.90
41720;DHT22;27405;53.316;-6.294;2023-04-06T00:48:03;10.90;99.90
41720;DHT22;27405;53.316;-6.294;2023-04-06T00:50:28;10.80;99.90
41720;DHT22;27405;53.316;-6.294;2023-04-06T00:52:54;10.80;99.90
41720;DHT22;27405;53.316;-6.294;2023-04-06T00:55:20;10.70;99.90
41720;DHT22;27405;53.316;-6.294;2023-04-06T00:57:46;10.70;99.90
41720;DHT22;27405;53.316;-6.294;2023-04-06T01:00:13;10.70;99.90
41720;DHT22;27405;53.316;-6.294;2023-04-06T01:02:38;10.70;99.90
41720;DHT22;27405;53.316;-6.294;2023-04-06T01:05:04;10.70;99.90
41720;DHT22;27405;53.316;-6.294;2023-04-06T01:07:30;10.70;99.90
41720;DHT22;27405;53.316;-6.294;2023-04-06T01:09:56;10.60;99.90
41720;DHT22;27405;53.316;-6.294;2023-04-06T01:12:21;10.70;99.90
41720;DHT22;27405;53.316;-6.294;2023-04-06T01:14:47;10.70;99.90
41720;DHT22;27405;53.316;-6.294;2023-04-06T01:17:12;10.70;99.90
41720;DHT22;27405;53.316;-6.294;2023-04-06T01:19:38;10.70;99.90
41720;DHT22;27405;53.316;-6.294;2023-04-06T01:22:05;10.70;99.90
41720;DHT22;27405;53.316;-6.294;2023-04-06T01:24:31;10.70;99.90
41720;DHT22;27405;53.316;-6.294;2023-04-06T01:26:57;10.70;99.90
41720;DHT22;27405;53.316;-6.294;2023-04-06T01:29:22;10.70;99.90
41720;DHT22;27405;53.316;-6.294;2023-04-06T01:31:48;10.70;99.90
41720;DHT22;27405;53.316;-6.294;2023-04-06T01:34:14;10.70;99.90
41720;DHT22;27405;53.316;-6.294;2023-04-06T01:36:39;10.60;99.90
41720;DHT22;27405;53.316;-6.294;2023-04-06T01:39:05;10.70;99.90
41720;DHT22;27405;53.316;-6.294;2023-04-06T01:41:30;10.60;99.90
41720;DHT22;27405;53.316;-6.294;2023-04-06T01:43:56;10.60;99.90
41720;DHT22;27405;53.316;-6.294;2023-04-06T01:46:22;10.60;99.90
41720;DHT22;27405;53.316;-6.294;2023-04-06T01:48:47;10.60;99.90
41720;DHT22;27405;53.316;-6.294;2023-04-06T01:51:13;10.60;99.90
41720;DHT22;27405;53.316;-6.294;2023-04-06T01:53:38;10.60;99.90
41720;DHT22;27405;53.316;-6.294;2023-04-06T01:56:04;10.60;99.90
41720;DHT22;27405;53.316;-6.294;2023-04-06T01:58:29;10.60;99.90
41720;DHT22;27405;53.316;-6.294;2023-04-06T02:00:55;10.60;99.90
41720;DHT22;27405;53.316;-6.294;2023-04-06T02:03:21;10.60;99.90
41720;DHT22;27405;53.316;-6.294;2023-04-06T02:05:46;10.60;99.90
41720;DHT22;27405;53.316;-6.294;2023-04-06T02:08:12;10.50;99.90
41720;DHT22;27405;53.316;-6.294;2023-04-06T02:10:37;10.60;99.90
41720;DHT22;27405;53.316;-6.294;2023-04-06T02:13:03;10.60;99.90
41720;DHT22;27405;53.316;-6.294;2023-04-06T02:15:28;10.60;99.90
41720;DHT22;27405;53.316;-6.294;2023-04-06T02:17:54;10.50;99.90
41720;DHT22;27405;53.316;-6.294;2023-04-06T02:20:20;10.50;99.90
41720;DHT22;27405;53.316;-6.294;2023-04-06T02:22:45;10.50;99.90
41720;DHT22;27405;53.316;-6.294;2023-04-06T02:25:11;10.50;99.90
41720;DHT22;27405;53.316;-6.294;2023-04-06T02:27:37;10.50;99.90
41720;DHT22;27405;53.316;-6.294;2023-04-06T02:30:03;10.50;99.90
41720;DHT22;27405;53.316;-6.294;2023-04-06T02:32:28;10.50;99.90
41720;DHT22;27405;53.316;-6.294;2023-04-06T02:34:54;10.50;99.90
41720;DHT22;27405;53.316;-6.294;2023-04-06T02:37:20;10.50;99.90
41720;DHT22;27405;53.316;-6.294;2023-04-06T02:39:46;10.50;99.90
41720;DHT22;27405;53.316;-6.294;2023-04-06T02:42:11;10.50;99.90
41720;DHT22;27405;53.316;-6.294;2023-04-06T02:44:37;10.50;99.90
41720;DHT22;27405;53.316;-6.294;2023-04-06T02:47:03;10.50;99.90
41720;DHT22;27405;53.316;-6.294;2023-04-06T02:49:28;10.40;99.90
41720;DHT22;27405;53.316;-6.294;2023-04-06T02:51:54;10.40;99.90
41720;DHT22;27405;53.316;-6.294;2023-04-06T02:54:19;10.30;99.90
41720;DHT22;27405;53.316;-6.294;2023-04-06T02:56:45;10.30;99.90
41720;DHT22;27405;53.316;-6.294;2023-04-06T02:59:10;10.30;99.90
41720;DHT22;27405;53.316;-6.294;2023-04-06T03:01:36;10.30;99.90
41720;DHT22;27405;53.316;-6.294;2023-04-06T03:04:02;10.30;99.90
41720;DHT22;27405;53.316;-6.294;2023-04-06T03:06:27;10.20;99.90
41720;DHT22;27405;53.316;-6.294;2023-04-06T03:08:53;10.30;99.90
41720;DHT22;27405;53.316;-6.294;2023-04-06T03:11:18;10.20;99.90
41720;DHT22;27405;53.316;-6.294;2023-04-06T03:13:44;10.20;99.90
41720;DHT22;27405;53.316;-6.294;2023-04-06T03:16:10;10.20;99.90
41720;DHT22;27405;53.316;-6.294;2023-04-06T03:18:35;10.20;99.90
41720;DHT22;27405;53.316;-6.294;2023-04-06T03:21:01;10.20;99.90
41720;DHT22;27405;53.316;-6.294;2023-04-06T03:23:26;10.20;99.90
41720;DHT22;27405;53.316;-6.294;2023-04-06T03:25:52;10.20;99.90
41720;DHT22;27405;53.316;-6.294;2023-04-06T03:28:17;10.10;99.90
41720;DHT22;27405;53.316;-6.294;2023-04-06T03:30:43;10.20;99.90
41720;DHT22;27405;53.316;-6.294;2023-04-06T03:33:08;10.20;99.90
41720;DHT22;27405;53.316;-6.294;2023-04-06T03:35:34;10.20;99.90
41720;DHT22;27405;53.316;-6.294;2023-04-06T03:38:02;10.20;99.90
41720;DHT22;27405;53.316;-6.294;2023-04-06T03:40:27;10.20;99.90
41720;DHT22;27405;53.316;-6.294;2023-04-06T03:42:53;10.20;99.90
41720;DHT22;27405;53.316;-6.294;2023-04-06T03:45:18;10.20;99.90
41720;DHT22;27405;53.316;-6.294;2023-04-06T03:47:44;10.20;99.90
41720;DHT22;27405;53.316;-6.294;2023-04-06T03:50:10;10.20;99.90
41720;DHT22;27405;53.316;-6.294;2023-04-06T03:52:35;10.10;99.90
41720;DHT22;27405;53.316;-6.294;2023-04-06T03:55:02;10.10;99.90
41720;DHT22;27405;53.316;-6.294;2023-04-06T03:57:27;10.10;99.90
41720;DHT22;27405;53.316;-6.294;2023-04-06T03:59:53;10.00;99.90
41720;DHT22;27405;53.316;-6.294;2023-04-06T04:02:19;10.00;99.90
41720;DHT22;27405;53.316;-6.294;2023-04-06T04:04:44;10.00;99.90
41720;DHT22;27405;53.316;-6.294;2023-04-06T04:07:10;10.00;99.90
41720;DHT22;27405;53.316;-6.294;2023-04-06T04:09:36;10.00;99.90
41720;DHT22;27405;53.316;-6.294;2023-04-06T04:12:01;9.90;99.90
41720;DHT22;27405;53.316;-6.294;2023-04-06T04:14:27;9.80;99.90
41720;DHT22;27405;53.316;-6.294;2023-04-06T04:16:53;9.80;99.90
41720;DHT22;27405;53.316;-6.294;2023-04-06T04:19:18;9.70;99.90
41720;DHT22;27405;53.316;-6.294;2023-04-06T04:21:44;9.60;99.90
41720;DHT22;27405;53.316;-6.294;2023-04-06T04:24:10;9.60;99.90
41720;DHT22;27405;53.316;-6.294;2023-04-06T04:26:36;9.60;99.90
41720;DHT22;27405;53.316;-6.294;2023-04-06T04:29:01;9.50;99.90
41720;DHT22;27405;53.316;-6.294;2023-04-06T04:31:27;9.50;99.90
41720;DHT22;27405;53.316;-6.294;2023-04-06T04:33:52;9.50;99.90
41720;DHT22;27405;53.316;-6.294;2023-04-06T04:36:18;9.40;99.90
41720;DHT22;27405;53.316;-6.294;2023-04-06T04:38:43;9.40;99.90
41720;DHT22;27405;53.316;-6.294;2023-04-06T04:41:09;9.50;99.90
41720;DHT22;27405;53.316;-6.294;2023-04-06T04:43:34;9.50;99.90
41720;DHT22;27405;53.316;-6.294;2023-04-06T04:46:00;9.50;99.90
41720;DHT22;27405;53.316;-6.294;2023-04-06T04:48:25;9.50;99.90
41720;DHT22;27405;53.316;-6.294;2023-04-06T04:50:51;9.50;99.90
41720;DHT22;27405;53.316;-6.294;2023-04-06T04:53:16;9.60;99.90
41720;DHT22;27405;53.316;-6.294;2023-04-06T04:55:42;9.60;99.90
41720;DHT22;27405;53.316;-6.294;2023-04-06T04:58:08;9.60;99.90
41720;DHT22;27405;53.316;-6.294;2023-04-06T05:00:34;9.70;99.90
41720;DHT22;27405;53.316;-6.294;2023-04-06T05:03:00;9.70;99.90
41720;DHT22;27405;53.316;-6.294;2023-04-06T05:05:25;9.70;99.90
41720;DHT22;27405;53.316;-6.294;2023-04-06T05:07:51;9.70;99.90
41720;DHT22;27405;53.316;-6.294;2023-04-06T05:10:16;9.70;99.90
41720;DHT22;27405;53.316;-6.294;2023-04-06T05:12:42;9.70;99.90
41720;DHT22;27405;53.316;-6.294;2023-04-06T05:15:08;9.70;99.90
41720;DHT22;27405;53.316;-6.294;2023-04-06T05:17:34;9.70;99.90
41720;DHT22;27405;53.316;-6.294;2023-04-06T05:19:59;9.70;99.90
41720;DHT22;27405;53.316;-6.294;2023-04-06T05:22:25;9.60;99.90
41720;DHT22;27405;53.316;-6.294;2023-04-06T05:24:51;9.70;99.90
41720;DHT22;27405;53.316;-6.294;2023-04-06T05:27:16;9.70;99.90
41720;DHT22;27405;53.316;-6.294;2023-04-06T05:29:42;9.70;99.90
41720;DHT22;27405;53.316;-6.294;2023-04-06T05:32:08;9.70;99.90
41720;DHT22;27405;53.316;-6.294;2023-04-06T05:34:33;9.70;99.90
41720;DHT22;27405;53.316;-6.294;2023-04-06T05:36:59;9.70;99.90
41720;DHT22;27405;53.316;-6.294;2023-04-06T05:39:24;9.70;99.90
41720;DHT22;27405;53.316;-6.294;2023-04-06T05:41:50;9.70;99.90
41720;DHT22;27405;53.316;-6.294;2023-04-06T05:44:16;9.70;99.90
41720;DHT22;27405;53.316;-6.294;2023-04-06T05:46:42;9.70;99.90
41720;DHT22;27405;53.316;-6.294;2023-04-06T05:49:07;9.70;99.90
41720;DHT22;27405;53.316;-6.294;2023-04-06T05:51:33;9.70;99.90
41720;DHT22;27405;53.316;-6.294;2023-04-06T05:53:58;9.70;99.90
41720;DHT22;27405;53.316;-6.294;2023-04-06T05:56:24;9.70;99.90
41720;DHT22;27405;53.316;-6.294;2023-04-06T05:58:50;9.70;99.90
41720;DHT22;27405;53.316;-6.294;2023-04-06T06:01:16;9.70;99.90
41720;DHT22;27405;53.316;-6.294;2023-04-06T06:03:41;9.70;99.90
41720;DHT22;27405;53.316;-6.294;2023-04-06T06:06:07;9.70;99.90
41720;DHT22;27405;53.316;-6.294;2023-04-06T06:08:32;9.70;99.90
41720;DHT22;27405;53.316;-6.294;2023-04-06T06:10:58;9.70;99.90
41720;DHT22;27405;53.316;-6.294;2023-04-06T06:13:24;9.60;99.90
41720;DHT22;27405;53.316;-6.294;2023-04-06T06:15:50;9.60;99.90
41720;DHT22;27405;53.316;-6.294;2023-04-06T06:18:15;9.60;99.90
41720;DHT22;27405;53.316;-6.294;2023-04-06T06:20:41;9.50;99.90
41720;DHT22;27405;53.316;-6.294;2023-04-06T06:23:07;9.50;99.90
41720;DHT22;27405;53.316;-6.294;2023-04-06T06:25:32;9.60;99.90
41720;DHT22;27405;53.316;-6.294;2023-04-06T06:27:58;9.50;99.90
41720;DHT22;27405;53.316;-6.294;2023-04-06T06:30:23;9.50;99.90
41720;DHT22;27405;53.316;-6.294;2023-04-06T06:32:49;9.60;99.90
41720;DHT22;27405;53.316;-6.294;2023-04-06T06:35:15;9.50;99.90
41720;DHT22;27405;53.316;-6.294;2023-04-06T06:37:40;9.50;99.90
41720;DHT22;27405;53.316;-6.294;2023-04-06T06:40:06;9.40;99.90
41720;DHT22;27405;53.316;-6.294;2023-04-06T06:42:32;9.40;99.90
41720;DHT22;27405;53.316;-6.294;2023-04-06T06:44:57;9.40;99.90
41720;DHT22;27405;53.316;-6.294;2023-04-06T06:47:23;9.40;99.90
41720;DHT22;27405;53.316;-6.294;2023-04-06T06:49:48;9.40;99.90
41720;DHT22;27405;53.316;-6.294;2023-04-06T06:52:14;9.40;99.90
41720;DHT22;27405;53.316;-6.294;2023-04-06T06:54:40;9.40;99.90
41720;DHT22;27405;53.316;-6.294;2023-04-06T06:57:05;9.40;99.90
41720;DHT22;27405;53.316;-6.294;2023-04-06T06:59:31;9.40;99.90
41720;DHT22;27405;53.316;-6.294;2023-04-06T07:01:56;9.40;99.90
41720;DHT22;27405;53.316;-6.294;2023-04-06T07:04:22;9.50;99.90
41720;DHT22;27405;53.316;-6.294;2023-04-06T07:06:47;9.50;99.90
41720;DHT22;27405;53.316;-6.294;2023-04-06T07:09:13;9.60;99.90
41720;DHT22;27405;53.316;-6.294;2023-04-06T07:11:39;9.60;99.90
41720;DHT22;27405;53.316;-6.294;2023-04-06T07:14:04;9.60;99.90
41720;DHT22;27405;53.316;-6.294;2023-04-06T07:16:30;9.60;99.90
41720;DHT22;27405;53.316;-6.294;2023-04-06T07:18:55;9.70;99.90
41720;DHT22;27405;53.316;-6.294;2023-04-06T07:21:21;9.70;99.90
41720;DHT22;27405;53.316;-6.294;2023-04-06T07:23:47;9.70;99.90
41720;DHT22;27405;53.316;-6.294;2023-04-06T07:26:13;9.70;99.90
41720;DHT22;27405;53.316;-6.294;2023-04-06T07:28:39;9.60;99.90
41720;DHT22;27405;53.316;-6.294;2023-04-06T07:31:04;9.60;99.90
41720;DHT22;27405;53.316;-6.294;2023-04-06T07:33:30;9.60;99.90
41720;DHT22;27405;53.316;-6.294;2023-04-06T07:35:56;9.60;99.90
41720;DHT22;27405;53.316;-6.294;2023-04-06T07:38:22;9.70;99.90
41720;DHT22;27405;53.316;-6.294;2023-04-06T07:40:48;9.70;99.90
41720;DHT22;27405;53.316;-6.294;2023-04-06T07:43:13;9.60;99.90
41720;DHT22;27405;53.316;-6.294;2023-04-06T07:45:39;9.60;99.90
41720;DHT22;27405;53.316;-6.294;2023-04-06T07:48:04;9.60;99.90
41720;DHT22;27405;53.316;-6.294;2023-04-06T07:50:30;9.70;99.90
41720;DHT22;27405;53.316;-6.294;2023-04-06T07:52:56;9.70;99.90
41720;DHT22;27405;53.316;-6.294;2023-04-06T07:55:22;9.80;99.90
41720;DHT22;27405;53.316;-6.294;2023-04-06T07:57:48;9.90;99.90
41720;DHT22;27405;53.316;-6.294;2023-04-06T08:00:14;10.00;99.90
41720;DHT22;27405;53.316;-6.294;2023-04-06T08:02:39;10.10;99.90
41720;DHT22;27405;53.316;-6.294;2023-04-06T08:05:05;10.20;99.90
41720;DHT22;27405;53.316;-6.294;2023-04-06T08:07:31;10.20;99.90
41720;DHT22;27405;53.316;-6.294;2023-04-06T08:09:56;10.20;99.90
41720;DHT22;27405;53.316;-6.294;2023-04-06T08:12:22;10.20;99.90
41720;DHT22;27405;53.316;-6.294;2023-04-06T08:14:47;10.20;99.90
41720;DHT22;27405;53.316;-6.294;2023-04-06T08:17:13;10.30;99.90
41720;DHT22;27405;53.316;-6.294;2023-04-06T08:19:38;10.30;99.90
41720;DHT22;27405;53.316;-6.294;2023-04-06T08:22:04;10.30;99.90
41720;DHT22;27405;53.316;-6.294;2023-04-06T08:24:29;10.30;99.90
41720;DHT22;27405;53.316;-6.294;2023-04-06T08:26:57;10.30;99.90
41720;DHT22;27405;53.316;-6.294;2023-04-06T08:29:23;10.40;99.90
41720;DHT22;27405;53.316;-6.294;2023-04-06T08:31:48;10.30;99.90
41720;DHT22;27405;53.316;-6.294;2023-04-06T08:34:14;10.40;99.90
41720;DHT22;27405;53.316;-6.294;2023-04-06T08:36:40;10.40;99.90
41720;DHT22;27405;53.316;-6.294;2023-04-06T08:39:06;10.40;99.90
41720;DHT22;27405;53.316;-6.294;2023-04-06T08:41:31;10.50;99.90
41720;DHT22;27405;53.316;-6.294;2023-04-06T08:43:58;10.60;99.90
41720;DHT22;27405;53.316;-6.294;2023-04-06T08:46:24;10.70;99.90
41720;DHT22;27405;53.316;-6.294;2023-04-06T08:48:55;10.70;99.90
41720;DHT22;27405;53.316;-6.294;2023-04-06T08:51:22;10.80;99.90
41720;DHT22;27405;53.316;-6.294;2023-04-06T08:53:48;10.90;99.90
41720;DHT22;27405;53.316;-6.294;2023-04-06T08:56:15;11.00;99.90
41720;DHT22;27405;53.316;-6.294;2023-04-06T08:58:40;11.00;99.90
41720;DHT22;27405;53.316;-6.294;2023-04-06T09:01:07;11.10;99.90
41720;DHT22;27405;53.316;-6.294;2023-04-06T09:03:37;11.20;99.90
41720;DHT22;27405;53.316;-6.294;2023-04-06T09:06:03;11.20;99.90
41720;DHT22;27405;53.316;-6.294;2023-04-06T09:08:29;11.20;99.90
41720;DHT22;27405;53.316;-6.294;2023-04-06T09:10:55;11.30;99.90
41720;DHT22;27405;53.316;-6.294;2023-04-06T09:13:20;11.40;99.90
41720;DHT22;27405;53.316;-6.294;2023-04-06T09:15:46;11.40;99.90
41720;DHT22;27405;53.316;-6.294;2023-04-06T09:18:12;11.40;99.90
41720;DHT22;27405;53.316;-6.294;2023-04-06T09:20:37;11.50;99.90
41720;DHT22;27405;53.316;-6.294;2023-04-06T09:23:03;11.50;99.90
41720;DHT22;27405;53.316;-6.294;2023-04-06T09:25:28;11.50;99.90
41720;DHT22;27405;53.316;-6.294;2023-04-06T09:28:02;11.50;99.90
41720;DHT22;27405;53.316;-6.294;2023-04-06T09:30:28;11.50;99.90
41720;DHT22;27405;53.316;-6.294;2023-04-06T09:32:55;11.60;99.90
41720;DHT22;27405;53.316;-6.294;2023-04-06T09:35:22;11.60;99.90
41720;DHT22;27405;53.316;-6.294;2023-04-06T09:37:48;11.70;99.90
41720;DHT22;27405;53.316;-6.294;2023-04-06T09:40:14;11.70;99.90
41720;DHT22;27405;53.316;-6.294;2023-04-06T09:42:44;11.70;99.90
41720;DHT22;27405;53.316;-6.294;2023-04-06T09:45:10;11.60;99.90
41720;DHT22;27405;53.316;-6.294;2023-04-06T09:47:36;11.50;99.90
41720;DHT22;27405;53.316;-6.294;2023-04-06T09:50:02;11.50;99.90
41720;DHT22;27405;53.316;-6.294;2023-04-06T09:52:32;11.40;99.90
41720;DHT22;27405;53.316;-6.294;2023-04-06T09:55:02;11.50;99.90
41720;DHT22;27405;53.316;-6.294;2023-04-06T09:57:29;11.50;99.90
41720;DHT22;27405;53.316;-6.294;2023-04-06T10:05:09;11.90;99.90
41720;DHT22;27405;53.316;-6.294;2023-04-06T10:07:39;12.00;99.90
41720;DHT22;27405;53.316;-6.294;2023-04-06T10:10:05;12.00;99.90
41720;DHT22;27405;53.316;-6.294;2023-04-06T10:12:31;12.00;99.90
41720;DHT22;27405;53.316;-6.294;2023-04-06T10:14:57;12.00;99.90
41720;DHT22;27405;53.316;-6.294;2023-04-06T10:17:22;11.90;99.90
41720;DHT22;27405;53.316;-6.294;2023-04-06T10:19:55;11.80;99.90
41720;DHT22;27405;53.316;-6.294;2023-04-06T10:22:26;11.60;99.90
41720;DHT22;27405;53.316;-6.294;2023-04-06T10:24:54;11.50;99.90
41720;DHT22;27405;53.316;-6.294;2023-04-06T10:27:29;11.40;99.90
41720;DHT22;27405;53.316;-6.294;2023-04-06T10:30:00;11.40;99.90
41720;DHT22;27405;53.316;-6.294;2023-04-06T10:32:36;11.50;99.90
41720;DHT22;27405;53.316;-6.294;2023-04-06T10:35:06;11.70;99.90
41720;DHT22;27405;53.316;-6.294;2023-04-06T10:37:45;11.90;99.90
41720;DHT22;27405;53.316;-6.294;2023-04-06T10:40:21;12.10;99.90
41720;DHT22;27405;53.316;-6.294;2023-04-06T10:42:47;12.10;99.90
41720;DHT22;27405;53.316;-6.294;2023-04-06T10:45:31;12.10;99.90
41720;DHT22;27405;53.316;-6.294;2023-04-06T10:47:56;12.10;99.90
41720;DHT22;27405;53.316;-6.294;2023-04-06T10:50:23;12.20;99.90
41720;DHT22;27405;53.316;-6.294;2023-04-06T10:52:58;12.20;99.90
41720;DHT22;27405;53.316;-6.294;2023-04-06T10:55:24;12.20;99.90
41720;DHT22;27405;53.316;-6.294;2023-04-06T10:57:51;12.20;99.90
41720;DHT22;27405;53.316;-6.294;2023-04-06T11:00:17;12.20;99.90
41720;DHT22;27405;53.316;-6.294;2023-04-06T11:02:42;12.30;99.90
41720;DHT22;27405;53.316;-6.294;2023-04-06T11:05:08;12.50;99.90
41720;DHT22;27405;53.316;-6.294;2023-04-06T11:07:36;12.70;99.90
41720;DHT22;27405;53.316;-6.294;2023-04-06T11:10:02;12.70;99.90
41720;DHT22;27405;53.316;-6.294;2023-04-06T11:12:28;12.70;99.90
41720;DHT22;27405;53.316;-6.294;2023-04-06T11:14:57;12.60;99.90
41720;DHT22;27405;53.316;-6.294;2023-04-06T11:17:34;12.70;99.90
41720;DHT22;27405;53.316;-6.294;2023-04-06T11:19:59;12.60;99.90
41720;DHT22;27405;53.316;-6.294;2023-04-06T11:22:25;12.70;99.90
41720;DHT22;27405;53.316;-6.294;2023-04-06T11:24:51;12.70;99.90
41720;DHT22;27405;53.316;-6.294;2023-04-06T11:27:17;12.80;99.90
41720;DHT22;27405;53.316;-6.294;2023-04-06T11:29:43;12.80;99.90
41720;DHT22;27405;53.316;-6.294;2023-04-06T11:32:11;12.70;99.90
41720;DHT22;27405;53.316;-6.294;2023-04-06T11:34:37;12.70;99.90
41720;DHT22;27405;53.316;-6.294;2023-04-06T11:37:08;12.70;99.90
41720;DHT22;27405;53.316;-6.294;2023-04-06T11:39:49;12.90;99.90
41720;DHT22;27405;53.316;-6.294;2023-04-06T11:42:25;13.10;99.90
41720;DHT22;27405;53.316;-6.294;2023-04-06T11:44:51;13.10;99.90
41720;DHT22;27405;53.316;-6.294;2023-04-06T11:47:18;13.20;99.90
41720;DHT22;27405;53.316;-6.294;2023-04-06T11:49:44;13.10;99.90
41720;DHT22;27405;53.316;-6.294;2023-04-06T11:52:28;13.00;99.90
41720;DHT22;27405;53.316;-6.294;2023-04-06T11:54:54;12.80;99.90
41720;DHT22;27405;53.316;-6.294;2023-04-06T11:57:22;12.60;99.90
41720;DHT22;27405;53.316;-6.294;2023-04-06T11:59:51;12.50;99.90
41720;DHT22;27405;53.316;-6.294;2023-04-06T12:02:17;12.40;99.90
41720;DHT22;27405;53.316;-6.294;2023-04-06T12:04:43;12.40;99.90
41720;DHT22;27405;53.316;-6.294;2023-04-06T12:07:08;12.40;99.90
41720;DHT22;27405;53.316;-6.294;2023-04-06T12:09:34;12.50;99.90
41720;DHT22;27405;53.316;-6.294;2023-04-06T12:12:01;12.60;99.90
41720;DHT22;27405;53.316;-6.294;2023-04-06T12:14:26;12.70;99.90
41720;DHT22;27405;53.316;-6.294;2023-04-06T12:16:52;13.00;99.90
41720;DHT22;27405;53.316;-6.294;2023-04-06T12:19:18;13.20;99.90
41720;DHT22;27405;53.316;-6.294;2023-04-06T12:21:43;13.20;99.90
41720;DHT22;27405;53.316;-6.294;2023-04-06T12:24:09;13.30;99.90
41720;DHT22;27405;53.316;-6.294;2023-04-06T12:26:34;13.40;99.90
41720;DHT22;27405;53.316;-6.294;2023-04-06T12:29:01;13.50;99.90
41720;DHT22;27405;53.316;-6.294;2023-04-06T12:31:32;13.60;99.90
41720;DHT22;27405;53.316;-6.294;2023-04-06T12:33:58;13.60;99.90
41720;DHT22;27405;53.316;-6.294;2023-04-06T12:36:23;13.50;99.90
41720;DHT22;27405;53.316;-6.294;2023-04-06T12:38:49;13.40;99.90
41720;DHT22;27405;53.316;-6.294;2023-04-06T12:41:16;13.30;99.90
41720;DHT22;27405;53.316;-6.294;2023-04-06T12:43:41;13.30;99.90
41720;DHT22;27405;53.316;-6.294;2023-04-06T12:46:07;13.30;99.90
41720;DHT22;27405;53.316;-6.294;2023-04-06T12:48:33;13.30;99.90
41720;DHT22;27405;53.316;-6.294;2023-04-06T12:51:00;13.20;99.90
41720;DHT22;27405;53.316;-6.294;2023-04-06T12:53:25;13.20;99.90
41720;DHT22;27405;53.316;-6.294;2023-04-06T12:55:51;13.20;99.90
41720;DHT22;27405;53.316;-6.294;2023-04-06T12:58:17;13.30;99.90
41720;DHT22;27405;53.316;-6.294;2023-04-06T13:00:43;13.40;99.90
41720;DHT22;27405;53.316;-6.294;2023-04-06T13:03:08;13.60;99.90
41720;DHT22;27405;53.316;-6.294;2023-04-06T13:05:34;13.70;99.90
41720;DHT22;27405;53.316;-6.294;2023-04-06T13:08:00;13.90;99.90
41720;DHT22;27405;53.316;-6.294;2023-04-06T13:10:25;14.10;99.90
41720;DHT22;27405;53.316;-6.294;2023-04-06T13:12:51;14.20;99.90
41720;DHT22;27405;53.316;-6.294;2023-04-06T13:15:17;14.20;99.90
41720;DHT22;27405;53.316;-6.294;2023-04-06T13:17:43;14.20;99.90
41720;DHT22;27405;53.316;-6.294;2023-04-06T13:20:08;14.00;99.90
41720;DHT22;27405;53.316;-6.294;2023-04-06T13:22:34;13.90;99.90
41720;DHT22;27405;53.316;-6.294;2023-04-06T13:25:00;13.70;99.90
41720;DHT22;27405;53.316;-6.294;2023-04-06T13:27:25;13.70;99.90
41720;DHT22;27405;53.316;-6.294;2023-04-06T13:29:52;13.70;99.90
41720;DHT22;27405;53.316;-6.294;2023-04-06T13:32:18;13.80;99.90
41720;DHT22;27405;53.316;-6.294;2023-04-06T13:34:44;13.90;99.90
41720;DHT22;27405;53.316;-6.294;2023-04-06T13:37:12;14.10;99.90
41720;DHT22;27405;53.316;-6.294;2023-04-06T13:39:38;14.30;99.90
41720;DHT22;27405;53.316;-6.294;2023-04-06T13:42:04;14.50;99.90
41720;DHT22;27405;53.316;-6.294;2023-04-06T13:44:30;14.60;99.90
41720;DHT22;27405;53.316;-6.294;2023-04-06T13:46:56;14.80;99.90
41720;DHT22;27405;53.316;-6.294;2023-04-06T13:49:22;14.90;99.90
41720;DHT22;27405;53.316;-6.294;2023-04-06T13:51:47;15.00;99.90
41720;DHT22;27405;53.316;-6.294;2023-04-06T13:54:13;15.00;99.70
41720;DHT22;27405;53.316;-6.294;2023-04-06T13:56:38;15.10;99.70
41720;DHT22;27405;53.316;-6.294;2023-04-06T13:59:04;15.10;99.50
41720;DHT22;27405;53.316;-6.294;2023-04-06T14:01:29;15.20;99.10
41720;DHT22;27405;53.316;-6.294;2023-04-06T14:03:55;15.20;98.60
41720;DHT22;27405;53.316;-6.294;2023-04-06T14:06:20;15.20;98.30
41720;DHT22;27405;53.316;-6.294;2023-04-06T14:08:46;15.10;97.90
41720;DHT22;27405;53.316;-6.294;2023-04-06T14:11:12;15.00;97.70
41720;DHT22;27405;53.316;-6.294;2023-04-06T14:13:38;14.70;98.00
41720;DHT22;27405;53.316;-6.294;2023-04-06T14:16:04;14.60;98.00
41720;DHT22;27405;53.316;-6.294;2023-04-06T14:18:30;14.50;98.20
41720;DHT22;27405;53.316;-6.294;2023-04-06T14:20:56;14.40;98.20
41720;DHT22;27405;53.316;-6.294;2023-04-06T14:23:23;14.40;98.70
41720;DHT22;27405;53.316;-6.294;2023-04-06T14:25:51;14.50;99.00
41720;DHT22;27405;53.316;-6.294;2023-04-06T14:28:16;14.60;98.80
41720;DHT22;27405;53.316;-6.294;2023-04-06T14:30:42;14.70;98.60
41720;DHT22;27405;53.316;-6.294;2023-04-06T14:33:08;14.80;98.20
41720;DHT22;27405;53.316;-6.294;2023-04-06T14:35:37;14.70;97.90
41720;DHT22;27405;53.316;-6.294;2023-04-06T14:38:03;14.70;97.90
41720;DHT22;27405;53.316;-6.294;2023-04-06T14:40:28;14.60;97.90
41720;DHT22;27405;53.316;-6.294;2023-04-06T14:42:54;14.50;97.80
41720;DHT22;27405;53.316;-6.294;2023-04-06T14:45:20;14.70;98.10
41720;DHT22;27405;53.316;-6.294;2023-04-06T14:47:47;14.80;98.00
41720;DHT22;27405;53.316;-6.294;2023-04-06T14:50:13;15.00;97.60
41720;DHT22;27405;53.316;-6.294;2023-04-06T14:52:38;15.10;97.00
41720;DHT22;27405;53.316;-6.294;2023-04-06T14:55:04;15.20;96.80
41720;DHT22;27405;53.316;-6.294;2023-04-06T14:57:30;15.20;96.80
41720;DHT22;27405;53.316;-6.294;2023-04-06T14:59:56;15.40;97.40
41720;DHT22;27405;53.316;-6.294;2023-04-06T15:02:22;15.60;97.10
41720;DHT22;27405;53.316;-6.294;2023-04-06T15:04:47;15.60;96.30
41720;DHT22;27405;53.316;-6.294;2023-04-06T15:07:13;15.50;96.30
41720;DHT22;27405;53.316;-6.294;2023-04-06T15:09:38;15.60;97.20
41720;DHT22;27405;53.316;-6.294;2023-04-06T15:12:04;15.80;97.70
41720;DHT22;27405;53.316;-6.294;2023-04-06T15:14:30;16.10;97.60
41720;DHT22;27405;53.316;-6.294;2023-04-06T15:16:56;16.50;97.90
41720;DHT22;27405;53.316;-6.294;2023-04-06T15:19:21;16.70;97.40